createdAt,value
2022-08-24T00:00:41.328Z,100.00
2022-08-24T00:03:45.715Z,100.00
2022-08-24T00:06:49.887Z,100.00
2022-08-24T00:09:52.493Z,100.00
2022-08-24T00:12:55.003Z,100.00
2022-08-24T00:15:57.907Z,100.00
2022-08-24T00:19:02.302Z,100.00
2022-08-24T00:22:06.707Z,100.00
2022-08-24T00:25:11.333Z,100.00
2022-08-24T00:28:14.126Z,100.00
2022-08-24T00:31:17.790Z,100.00
2022-08-24T00:34:20.507Z,100.00
2022-08-24T00:37:25.417Z,100.00
2022-08-24T00:40:33.982Z,100.00
2022-08-24T00:43:36.695Z,100.00
2022-08-24T00:46:49.017Z,100.00
2022-08-24T00:49:57.655Z,100.00
2022-08-24T00:53:07.193Z,100.00
2022-08-24T00:56:15.425Z,100.00
2022-08-24T00:59:22.246Z,100.00
2022-08-24T01:02:30.229Z,100.00
2022-08-24T01:05:33.781Z,100.00
2022-08-24T01:08:37.635Z,100.00
2022-08-24T01:11:41.201Z,100.00
2022-08-24T01:14:44.466Z,100.00
2022-08-24T01:18:08.473Z,100.00
2022-08-24T01:21:16.147Z,100.00
2022-08-24T01:24:20.063Z,100.00
2022-08-24T01:27:27.862Z,100.00
2022-08-24T01:30:36.380Z,100.00
2022-08-24T01:33:39.374Z,100.00
2022-08-24T01:36:45.716Z,100.00
2022-08-24T01:39:51.173Z,100.00
2022-08-24T01:42:54.178Z,100.00
2022-08-24T01:45:56.872Z,100.00
2022-08-24T01:49:00.311Z,100.00
2022-08-24T01:52:03.542Z,100.00
2022-08-24T01:55:08.991Z,100.00
2022-08-24T01:58:11.519Z,100.00
2022-08-24T02:01:14.934Z,100.00
2022-08-24T02:04:17.615Z,100.00
2022-08-24T02:07:20.550Z,100.00
2022-08-24T02:10:24.555Z,100.00
2022-08-24T02:13:28.711Z,100.00
2022-08-24T02:16:31.283Z,100.00
2022-08-24T02:19:34.163Z,100.00
2022-08-24T02:22:36.657Z,100.00
2022-08-24T02:25:40.481Z,100.00
2022-08-24T02:28:43.314Z,100.00
2022-08-24T02:31:45.967Z,100.00
2022-08-24T02:34:48.473Z,100.00
2022-08-24T02:37:52.207Z,100.00
2022-08-24T02:40:57.866Z,100.00
2022-08-24T02:44:00.942Z,100.00
2022-08-24T02:47:03.427Z,100.00
2022-08-24T02:50:07.824Z,100.00
2022-08-24T02:53:11.165Z,100.00
2022-08-24T02:56:15.129Z,100.00
2022-08-24T02:59:18.370Z,100.00
2022-08-24T03:02:20.926Z,100.00
2022-08-24T03:05:25.009Z,100.00
2022-08-24T03:08:27.544Z,100.00
2022-08-24T03:11:33.128Z,100.00
2022-08-24T03:14:36.018Z,100.00
2022-08-24T03:17:39.950Z,100.00
2022-08-24T03:20:43.875Z,100.00
2022-08-24T03:23:46.379Z,100.00
2022-08-24T03:26:50.241Z,100.00
2022-08-24T03:29:52.978Z,100.00
2022-08-24T03:32:57.021Z,100.00
2022-08-24T03:35:59.669Z,100.00
2022-08-24T03:39:02.165Z,100.00
2022-08-24T03:42:06.843Z,100.00
2022-08-24T03:45:11.028Z,100.00
2022-08-24T03:48:15.623Z,100.00
2022-08-24T03:51:20.074Z,100.00
2022-08-24T03:54:22.603Z,100.00
2022-08-24T03:57:26.443Z,100.00
2022-08-24T04:00:28.958Z,100.00
2022-08-24T04:03:32.522Z,100.00
2022-08-24T04:06:35.960Z,100.00
2022-08-24T04:09:38.537Z,100.00
2022-08-24T04:12:42.334Z,100.00
2022-08-24T04:15:46.351Z,100.00
2022-08-24T04:18:49.301Z,100.00
2022-08-24T04:21:51.784Z,100.00
2022-08-24T04:24:54.803Z,100.00
2022-08-24T04:27:58.644Z,100.00
2022-08-24T04:31:01.201Z,100.00
2022-08-24T04:34:04.086Z,100.00
2022-08-24T04:37:11.258Z,100.00
2022-08-24T04:40:14.020Z,100.00
2022-08-24T04:43:20.092Z,100.00
2022-08-24T04:46:22.904Z,100.00
2022-08-24T04:49:25.415Z,100.00
2022-08-24T04:52:29.120Z,100.00
2022-08-24T04:55:31.717Z,100.00
2022-08-24T04:58:35.544Z,100.00
2022-08-24T05:01:38.026Z,100.00
2022-08-24T05:04:40.553Z,100.00
2022-08-24T05:07:44.967Z,100.00
2022-08-24T05:10:50.542Z,100.00
2022-08-24T05:13:55.636Z,100.00
2022-08-24T05:16:58.230Z,100.00
2022-08-24T05:20:00.921Z,100.00
2022-08-24T05:23:04.643Z,100.00
2022-08-24T05:26:10.223Z,100.00
2022-08-24T05:29:14.461Z,100.00
2022-08-24T05:32:19.129Z,100.00
2022-08-24T05:35:21.987Z,100.00
2022-08-24T05:38:24.475Z,100.00
2022-08-24T05:41:27.711Z,100.00
2022-08-24T05:44:31.897Z,100.00
2022-08-24T05:47:35.412Z,100.00
2022-08-24T05:50:38.072Z,100.00
2022-08-24T05:53:40.978Z,100.00
2022-08-24T05:56:44.718Z,100.00
2022-08-24T05:59:48.927Z,100.00
2022-08-24T06:02:52.902Z,100.00
2022-08-24T06:05:55.899Z,100.00
2022-08-24T06:09:01.550Z,100.00
2022-08-24T06:12:04.619Z,100.00
2022-08-24T06:15:09.666Z,100.00
2022-08-24T06:18:12.293Z,100.00
2022-08-24T06:21:17.676Z,100.00
2022-08-24T06:24:42.117Z,100.00
2022-08-24T06:27:45.205Z,100.00
2022-08-24T06:30:48.999Z,100.00
2022-08-24T06:33:52.814Z,100.00
2022-08-24T06:36:55.281Z,100.00
2022-08-24T06:39:59.841Z,100.00
2022-08-24T06:43:04.687Z,100.00
2022-08-24T06:46:08.702Z,100.00
2022-08-24T06:49:11.299Z,100.00
2022-08-24T06:52:13.999Z,100.00
2022-08-24T06:55:16.715Z,100.00
2022-08-24T06:58:20.140Z,100.00
2022-08-24T07:01:27.470Z,100.00
2022-08-24T07:04:30.210Z,100.00
2022-08-24T07:07:32.689Z,100.00
2022-08-24T07:10:35.674Z,100.00
2022-08-24T07:13:38.736Z,100.00
2022-08-24T07:16:42.842Z,100.00
2022-08-24T07:19:46.271Z,100.00
2022-08-24T07:22:48.848Z,100.00
2022-08-24T07:25:55.495Z,100.00
2022-08-24T07:29:05.128Z,100.00
2022-08-24T07:32:10.165Z,100.00
2022-08-24T07:35:12.737Z,100.00
2022-08-24T07:38:15.281Z,100.00
2022-08-24T07:41:40.459Z,100.00
2022-08-24T07:44:40.527Z,100.00
2022-08-24T07:47:54.587Z,100.00
2022-08-24T07:50:59.568Z,100.00
2022-08-24T07:54:03.590Z,100.00
2022-08-24T07:57:09.906Z,100.00
2022-08-24T08:00:15.810Z,100.00
2022-08-24T08:03:19.778Z,100.00
2022-08-24T08:06:22.254Z,100.00
2022-08-24T08:09:24.801Z,100.00
2022-08-24T08:12:27.454Z,100.00
2022-08-24T08:15:29.973Z,100.00
2022-08-24T08:18:34.838Z,100.00
2022-08-24T08:21:59.982Z,100.00
2022-08-24T08:25:02.487Z,100.00
2022-08-24T08:28:18.433Z,100.00
2022-08-24T08:31:28.137Z,100.00
2022-08-24T08:34:32.233Z,100.00
2022-08-24T08:40:56.374Z,99.32
2022-08-24T08:44:04.370Z,99.79
2022-08-24T08:47:18.116Z,100.00
2022-08-24T08:50:27.243Z,98.13
2022-08-24T08:54:02.857Z,97.64
2022-08-24T08:57:19.074Z,97.58
2022-08-24T09:00:24.558Z,97.07
2022-08-24T09:03:38.947Z,94.50
2022-08-24T09:06:52.014Z,96.58
2022-08-24T09:10:10.147Z,93.61
2022-08-24T09:13:26.905Z,93.52
2022-08-24T09:16:48.226Z,91.82
2022-08-24T09:20:08.850Z,87.82
2022-08-24T09:23:22.648Z,87.99
2022-08-24T09:26:29.173Z,87.72
2022-08-24T09:29:48.232Z,87.16
2022-08-24T09:33:06.243Z,89.05
2022-08-24T09:36:13.032Z,86.51
2022-08-24T09:39:37.091Z,85.29
2022-08-24T09:43:07.775Z,83.58
2022-08-24T09:46:50.743Z,82.76
2022-08-24T09:50:11.324Z,79.85
2022-08-24T09:53:38.145Z,80.98
2022-08-24T09:57:12.175Z,78.85
2022-08-24T10:00:22.567Z,77.68
2022-08-24T10:03:40.007Z,75.22
2022-08-24T10:06:55.531Z,76.41
2022-08-24T10:10:16.810Z,76.91
2022-08-24T10:13:26.151Z,78.70
2022-08-24T10:16:39.647Z,75.48
2022-08-24T10:19:57.891Z,73.36
2022-08-24T10:23:30.445Z,70.89
2022-08-24T10:26:42.038Z,71.81
2022-08-24T10:30:11.247Z,66.12
2022-08-24T10:33:21.225Z,70.67
2022-08-24T10:36:49.928Z,72.94
2022-08-24T10:40:14.311Z,72.88
2022-08-24T10:43:42.983Z,72.47
2022-08-24T10:46:56.613Z,71.14
2022-08-24T10:50:31.106Z,72.96
2022-08-24T10:53:34.685Z,71.79
2022-08-24T10:56:42.360Z,69.65
2022-08-24T10:59:53.674Z,68.48
2022-08-24T11:03:11.471Z,70.18
2022-08-24T11:06:16.554Z,71.48
2022-08-24T11:09:20.078Z,69.33
2022-08-24T11:12:26.386Z,67.16
2022-08-24T11:15:29.660Z,68.23
2022-08-24T11:18:49.781Z,71.54
2022-08-24T11:21:54.546Z,69.31
2022-08-24T11:25:00.491Z,66.19
2022-08-24T11:28:06.092Z,65.07
2022-08-24T11:31:12.480Z,63.74
2022-08-24T11:34:19.617Z,59.67
2022-08-24T11:37:27.105Z,56.32
2022-08-24T11:40:38.523Z,53.11
2022-08-24T11:43:58.857Z,52.65
2022-08-24T11:47:07.921Z,54.54
2022-08-24T11:50:23.470Z,57.24
2022-08-24T11:57:02.858Z,60.44
2022-08-24T12:00:10.399Z,60.25
2022-08-24T12:03:25.916Z,63.61
2022-08-24T12:06:41.898Z,64.34
2022-08-24T12:10:00.252Z,65.02
2022-08-24T12:13:10.999Z,64.10
2022-08-24T12:16:21.428Z,64.16
2022-08-24T12:19:29.742Z,63.86
2022-08-24T12:22:34.047Z,64.85
2022-08-24T12:25:55.277Z,63.87
2022-08-24T12:29:02.379Z,64.34
2022-08-24T12:32:10.315Z,66.38
2022-08-24T12:35:22.577Z,65.38
2022-08-24T12:38:32.696Z,63.96
2022-08-24T12:41:40.894Z,65.64
2022-08-24T12:44:50.130Z,65.44
2022-08-24T12:47:58.894Z,62.81
2022-08-24T12:51:14.565Z,62.80
2022-08-24T12:54:35.632Z,64.58
2022-08-24T12:57:54.579Z,63.70
2022-08-24T13:01:01.577Z,62.15
2022-08-24T13:04:11.770Z,63.59
2022-08-24T13:07:30.674Z,63.56
2022-08-24T13:10:42.279Z,62.91
2022-08-24T13:13:48.302Z,62.12
2022-08-24T13:17:09.542Z,61.45
2022-08-24T13:20:20.600Z,62.63
2022-08-24T13:23:25.222Z,63.67
2022-08-24T13:26:29.234Z,62.78
2022-08-24T13:29:35.477Z,65.52
2022-08-24T13:32:44.879Z,65.31
2022-08-24T13:36:03.891Z,65.13
2022-08-24T13:39:18.308Z,63.38
2022-08-24T13:42:46.338Z,63.94
2022-08-24T13:45:57.246Z,64.09
2022-08-24T13:49:03.864Z,63.66
2022-08-24T13:52:15.902Z,63.60
2022-08-24T13:55:36.781Z,63.87
2022-08-24T13:58:46.129Z,65.80
2022-08-24T14:02:08.368Z,66.01
2022-08-24T14:05:24.222Z,66.03
2022-08-24T14:08:42.875Z,66.13
2022-08-24T14:12:07.293Z,65.11
2022-08-24T14:15:27.016Z,60.81
2022-08-24T14:18:37.908Z,61.80
2022-08-24T14:21:46.544Z,60.74
2022-08-24T14:25:06.091Z,60.19
2022-08-24T14:28:37.161Z,59.45
2022-08-24T14:31:41.505Z,64.33
2022-08-24T14:34:53.160Z,62.76
2022-08-24T14:38:12.472Z,60.69
2022-08-24T14:41:20.612Z,59.70
2022-08-24T14:44:52.720Z,61.09
2022-08-24T14:48:05.484Z,65.74
2022-08-24T14:51:19.001Z,69.97
2022-08-24T14:54:32.458Z,71.03
2022-08-24T14:57:57.617Z,72.70
2022-08-24T15:01:13.095Z,72.00
2022-08-24T15:04:40.435Z,69.52
2022-08-24T15:07:53.793Z,67.99
2022-08-24T15:10:59.916Z,68.06
2022-08-24T15:14:05.808Z,68.81
2022-08-24T15:17:12.095Z,67.81
2022-08-24T15:20:21.058Z,68.03
2022-08-24T15:23:34.223Z,68.19
2022-08-24T15:26:51.039Z,66.52
2022-08-24T15:29:57.190Z,66.50
2022-08-24T15:33:06.360Z,67.16
2022-08-24T15:36:13.157Z,66.37
2022-08-24T15:39:27.093Z,66.04
2022-08-24T15:42:33.306Z,68.04
2022-08-24T15:45:48.355Z,67.86
2022-08-24T15:48:51.336Z,67.91
2022-08-24T15:51:58.447Z,67.24
2022-08-24T15:55:03.645Z,69.59
2022-08-24T15:58:25.615Z,71.72
2022-08-24T16:01:45.623Z,71.53
2022-08-24T16:04:50.169Z,75.12
2022-08-24T16:08:09.380Z,77.74
2022-08-24T16:11:27.439Z,77.62
2022-08-24T16:14:33.768Z,75.23
2022-08-24T16:17:41.359Z,72.65
2022-08-24T16:20:46.197Z,72.17
2022-08-24T16:24:01.312Z,71.18
2022-08-24T16:27:08.060Z,72.07
2022-08-24T16:30:24.559Z,72.29
2022-08-24T16:33:43.073Z,72.05
2022-08-24T16:36:48.699Z,72.84
2022-08-24T16:39:54.654Z,74.53
2022-08-24T16:42:57.586Z,73.71
2022-08-24T16:46:02.310Z,74.83
2022-08-24T16:49:04.874Z,75.10
2022-08-24T16:52:16.118Z,75.93
2022-08-24T16:55:19.957Z,78.01
2022-08-24T16:58:30.619Z,77.48
2022-08-24T17:01:33.182Z,77.45
2022-08-24T17:04:35.758Z,78.75
2022-08-24T17:07:38.352Z,79.68
2022-08-24T17:10:43.859Z,80.67
2022-08-24T17:13:50.228Z,81.89
2022-08-24T17:16:52.992Z,83.01
2022-08-24T17:19:56.555Z,83.62
2022-08-24T17:22:59.402Z,83.92
2022-08-24T17:26:09.530Z,83.79
2022-08-24T17:29:22.338Z,83.99
2022-08-24T17:32:25.613Z,85.13
2022-08-24T17:35:28.411Z,85.36
2022-08-24T17:38:31.486Z,86.52
2022-08-24T17:41:36.063Z,86.95
2022-08-24T17:44:39.221Z,87.99
2022-08-24T17:47:43.519Z,89.18
2022-08-24T17:50:46.102Z,89.97
2022-08-24T17:53:48.645Z,91.23
2022-08-24T17:56:52.899Z,93.15
2022-08-24T17:59:55.404Z,95.41
2022-08-24T18:02:57.940Z,96.75
2022-08-24T18:06:00.520Z,99.63
2022-08-24T18:09:06.774Z,100.00
2022-08-24T18:12:10.687Z,100.00
2022-08-24T18:15:13.330Z,100.00
2022-08-24T18:18:15.818Z,100.00
2022-08-24T18:21:20.029Z,100.00
2022-08-24T18:24:22.518Z,100.00
2022-08-24T18:27:29.322Z,100.00
2022-08-24T18:30:32.619Z,100.00
2022-08-24T18:33:35.492Z,100.00
2022-08-24T18:36:38.259Z,100.00
2022-08-24T18:39:40.734Z,100.00
2022-08-24T18:42:45.405Z,100.00
2022-08-24T18:45:47.964Z,100.00
2022-08-24T18:48:50.529Z,100.00
2022-08-24T18:51:53.284Z,100.00
2022-08-24T18:54:55.875Z,100.00
2022-08-24T18:58:00.204Z,100.00
2022-08-24T19:01:03.331Z,100.00
2022-08-24T19:04:11.996Z,100.00
2022-08-24T19:07:16.792Z,100.00
2022-08-24T19:10:21.855Z,100.00
2022-08-24T19:13:27.425Z,100.00
2022-08-24T19:16:30.384Z,100.00
2022-08-24T19:19:33.176Z,100.00
2022-08-24T19:22:36.368Z,100.00
2022-08-24T19:25:41.470Z,100.00
2022-08-24T19:28:45.287Z,100.00
2022-08-24T19:31:48.446Z,100.00
2022-08-24T19:34:51.399Z,100.00
2022-08-24T19:37:53.921Z,100.00
2022-08-24T19:40:58.046Z,100.00
2022-08-24T19:44:27.446Z,100.00
2022-08-24T19:47:30.455Z,100.00
2022-08-24T19:50:35.855Z,100.00
2022-08-24T19:53:38.872Z,100.00
2022-08-24T19:56:41.517Z,100.00
2022-08-24T19:59:45.718Z,100.00
2022-08-24T20:02:49.179Z,100.00
2022-08-24T20:05:51.911Z,100.00
2022-08-24T20:08:54.735Z,100.00
2022-08-24T20:11:57.231Z,100.00
2022-08-24T20:15:01.032Z,100.00
2022-08-24T20:18:03.720Z,100.00
2022-08-24T20:21:07.282Z,100.00
2022-08-24T20:24:11.211Z,100.00
2022-08-24T20:27:18.275Z,100.00
2022-08-24T20:30:22.637Z,100.00
2022-08-24T20:33:27.693Z,100.00
2022-08-24T20:36:36.255Z,100.00
2022-08-24T20:39:39.414Z,100.00
2022-08-24T20:42:42.639Z,100.00
2022-08-24T20:45:46.461Z,100.00
2022-08-24T20:48:55.579Z,100.00
2022-08-24T20:51:59.986Z,100.00
2022-08-24T20:55:04.859Z,100.00
2022-08-24T20:58:07.649Z,100.00
2022-08-24T21:01:11.864Z,100.00
2022-08-24T21:04:14.824Z,100.00
2022-08-24T21:07:17.350Z,100.00
2022-08-24T21:10:24.874Z,100.00
2022-08-24T21:13:29.358Z,100.00
2022-08-24T21:16:34.161Z,100.00
2022-08-24T21:19:36.671Z,100.00
2022-08-24T21:22:39.196Z,100.00
2022-08-24T21:25:41.783Z,100.00
2022-08-24T21:28:44.897Z,100.00
2022-08-24T21:32:02.699Z,100.00
2022-08-24T21:35:05.932Z,100.00
2022-08-24T21:38:08.482Z,100.00
2022-08-24T21:41:11.041Z,100.00
2022-08-24T21:44:13.560Z,100.00
2022-08-24T21:47:17.415Z,100.00
2022-08-24T21:50:20.026Z,100.00
2022-08-24T21:53:28.424Z,100.00
2022-08-24T21:56:33.329Z,100.00
2022-08-24T21:59:36.039Z,100.00
2022-08-24T22:02:39.930Z,100.00
2022-08-24T22:05:42.456Z,100.00
2022-08-24T22:08:45.235Z,100.00
2022-08-24T22:11:47.722Z,100.00
2022-08-24T22:14:50.317Z,100.00
2022-08-24T22:17:55.304Z,100.00
2022-08-24T22:20:57.791Z,100.00
2022-08-24T22:24:01.000Z,100.00
2022-08-24T22:27:03.634Z,100.00
2022-08-24T22:30:07.270Z,100.00
2022-08-24T22:33:11.127Z,100.00
2022-08-24T22:36:14.689Z,100.00
2022-08-24T22:39:17.629Z,100.00
2022-08-24T22:42:20.175Z,100.00
2022-08-24T22:45:22.687Z,100.00
2022-08-24T22:48:26.698Z,100.00
2022-08-24T22:51:29.477Z,100.00
2022-08-24T22:54:32.385Z,100.00
2022-08-24T22:57:35.039Z,100.00
2022-08-24T23:00:39.705Z,100.00
2022-08-24T23:03:43.605Z,100.00
2022-08-24T23:06:52.983Z,100.00
2022-08-24T23:09:55.473Z,100.00
2022-08-24T23:12:59.373Z,100.00
2022-08-24T23:16:01.951Z,100.00
2022-08-24T23:19:24.208Z,100.00
2022-08-24T23:22:28.289Z,100.00
2022-08-24T23:25:30.764Z,100.00
2022-08-24T23:28:34.068Z,100.00
2022-08-24T23:31:37.375Z,100.00
2022-08-24T23:34:41.505Z,100.00
2022-08-24T23:37:44.005Z,100.00
2022-08-24T23:40:46.526Z,100.00
2022-08-24T23:43:49.088Z,100.00
2022-08-24T23:46:51.604Z,100.00
2022-08-24T23:49:55.483Z,100.00
2022-08-24T23:52:58.055Z,100.00
2022-08-24T23:56:08.352Z,100.00
2022-08-24T23:59:13.917Z,100.00
